sensor_id;sensor_type;location;lat;lon;timestamp;pressure;altitude;pressure_sealevel;temperature;humidity
73245;BME280;61460;41.158;-73.238;2023-02-11T00:01:26;101472.98;;;25.03;37.65
73245;BME280;61460;41.158;-73.238;2023-02-11T00:03:55;101472.18;;;25.22;37.43
73245;BME280;61460;41.158;-73.238;2023-02-11T00:06:26;101470.15;;;25.31;37.31
73245;BME280;61460;41.158;-73.238;2023-02-11T00:08:55;101461.77;;;25.38;37.24
73245;BME280;61460;41.158;-73.238;2023-02-11T00:11:28;101475.28;;;25.40;37.26
73245;BME280;61460;41.158;-73.238;2023-02-11T00:13:57;101481.59;;;25.43;37.24
73245;BME280;61460;41.158;-73.238;2023-02-11T00:16:28;101484.44;;;25.46;37.24
73245;BME280;61460;41.158;-73.238;2023-02-11T00:18:58;101482.72;;;25.46;37.36
73245;BME280;61460;41.158;-73.238;2023-02-11T00:21:28;101481.01;;;25.50;37.36
73245;BME280;61460;41.158;-73.238;2023-02-11T00:23:59;101470.79;;;25.49;37.38
73245;BME280;61460;41.158;-73.238;2023-02-11T00:26:32;101470.80;;;25.51;37.38
73245;BME280;61460;41.158;-73.238;2023-02-11T00:29:01;101474.28;;;25.48;37.46
73245;BME280;61460;41.158;-73.238;2023-02-11T00:31:32;101474.84;;;25.53;37.43
73245;BME280;61460;41.158;-73.238;2023-02-11T00:34:01;101477.43;;;25.55;37.48
73245;BME280;61460;41.158;-73.238;2023-02-11T00:36:32;101477.98;;;25.38;37.20
73245;BME280;61460;41.158;-73.238;2023-02-11T00:39:03;101477.37;;;25.32;36.94
73245;BME280;61460;41.158;-73.238;2023-02-11T00:41:33;101476.55;;;25.53;36.77
73245;BME280;61460;41.158;-73.238;2023-02-11T00:44:04;101477.28;;;25.63;36.70
73245;BME280;61460;41.158;-73.238;2023-02-11T00:46:35;101478.69;;;25.65;36.71
73245;BME280;61460;41.158;-73.238;2023-02-11T00:49:05;101484.43;;;25.65;36.81
73245;BME280;61460;41.158;-73.238;2023-02-11T00:51:36;101482.45;;;25.71;36.83
73245;BME280;61460;41.158;-73.238;2023-02-11T00:54:07;101474.35;;;25.71;36.89
73245;BME280;61460;41.158;-73.238;2023-02-11T00:56:38;101481.43;;;25.74;36.93
73245;BME280;61460;41.158;-73.238;2023-02-11T00:59:08;101483.70;;;25.70;37.05
73245;BME280;61460;41.158;-73.238;2023-02-11T01:01:39;101481.48;;;25.72;37.04
73245;BME280;61460;41.158;-73.238;2023-02-11T01:04:09;101485.35;;;25.69;37.14
73245;BME280;61460;41.158;-73.238;2023-02-11T01:06:41;101484.26;;;25.76;37.08
73245;BME280;61460;41.158;-73.238;2023-02-11T01:09:10;101486.27;;;25.74;37.13
73245;BME280;61460;41.158;-73.238;2023-02-11T01:11:41;101487.04;;;25.71;37.19
73245;BME280;61460;41.158;-73.238;2023-02-11T01:14:13;101503.73;;;25.82;37.10
73245;BME280;61460;41.158;-73.238;2023-02-11T01:16:42;101508.52;;;25.78;37.16
73245;BME280;61460;41.158;-73.238;2023-02-11T01:19:13;101497.25;;;25.84;37.31
73245;BME280;61460;41.158;-73.238;2023-02-11T01:21:43;101498.33;;;25.83;36.56
73245;BME280;61460;41.158;-73.238;2023-02-11T01:24:14;101504.89;;;25.64;36.37
73245;BME280;61460;41.158;-73.238;2023-02-11T01:26:45;101514.82;;;25.82;36.41
73245;BME280;61460;41.158;-73.238;2023-02-11T01:29:15;101519.70;;;25.83;36.54
73245;BME280;61460;41.158;-73.238;2023-02-11T01:31:46;101524.91;;;25.81;36.71
73245;BME280;61460;41.158;-73.238;2023-02-11T01:34:16;101531.97;;;25.79;36.80
73245;BME280;61460;41.158;-73.238;2023-02-11T01:36:48;101534.52;;;25.82;36.83
73245;BME280;61460;41.158;-73.238;2023-02-11T01:39:18;101544.25;;;25.83;36.82
73245;BME280;61460;41.158;-73.238;2023-02-11T01:41:49;101537.75;;;25.82;36.90
73245;BME280;61460;41.158;-73.238;2023-02-11T01:44:25;101535.03;;;25.78;37.00
73245;BME280;61460;41.158;-73.238;2023-02-11T01:46:50;101532.84;;;25.82;36.96
73245;BME280;61460;41.158;-73.238;2023-02-11T01:49:25;101528.77;;;25.90;36.76
73245;BME280;61460;41.158;-73.238;2023-02-11T01:51:55;101525.96;;;25.87;36.96
73245;BME280;61460;41.158;-73.238;2023-02-11T01:54:24;101536.56;;;25.82;36.92
73245;BME280;61460;41.158;-73.238;2023-02-11T01:56:55;101540.75;;;25.69;37.07
73245;BME280;61460;41.158;-73.238;2023-02-11T01:59:28;101558.70;;;25.76;36.77
73245;BME280;61460;41.158;-73.238;2023-02-11T02:01:57;101566.86;;;25.62;36.90
73245;BME280;61460;41.158;-73.238;2023-02-11T02:04:28;101575.42;;;25.57;36.96
73245;BME280;61460;41.158;-73.238;2023-02-11T02:06:59;101578.91;;;25.16;37.62
73245;BME280;61460;41.158;-73.238;2023-02-11T02:09:27;101565.94;;;25.65;36.51
73245;BME280;61460;41.158;-73.238;2023-02-11T02:11:56;101564.95;;;25.32;37.55
73245;BME280;61460;41.158;-73.238;2023-02-11T02:14:27;101597.60;;;25.73;36.19
73245;BME280;61460;41.158;-73.238;2023-02-11T02:16:57;101581.45;;;25.81;36.20
73245;BME280;61460;41.158;-73.238;2023-02-11T02:19:42;101559.30;;;25.85;36.16
73245;BME280;61460;41.158;-73.238;2023-02-11T02:34:36;101565.95;;;25.93;36.36
73245;BME280;61460;41.158;-73.238;2023-02-11T02:37:08;101542.74;;;25.95;36.38
73245;BME280;61460;41.158;-73.238;2023-02-11T02:39:34;101548.06;;;25.95;36.39
73245;BME280;61460;41.158;-73.238;2023-02-11T02:42:04;101550.17;;;26.01;36.35
73245;BME280;61460;41.158;-73.238;2023-02-11T02:44:34;101549.60;;;25.99;36.41
73245;BME280;61460;41.158;-73.238;2023-02-11T02:47:05;101552.60;;;26.02;36.39
73245;BME280;61460;41.158;-73.238;2023-02-11T02:49:35;101548.49;;;25.99;36.51
73245;BME280;61460;41.158;-73.238;2023-02-11T02:52:15;101549.80;;;25.46;37.39
73245;BME280;61460;41.158;-73.238;2023-02-11T02:57:17;101539.99;;;25.76;36.29
73245;BME280;61460;41.158;-73.238;2023-02-11T02:59:45;101536.26;;;25.98;35.89
73245;BME280;61460;41.158;-73.238;2023-02-11T03:02:13;101538.34;;;25.94;36.12
73245;BME280;61460;41.158;-73.238;2023-02-11T03:04:45;101539.88;;;26.01;36.06
73245;BME280;61460;41.158;-73.238;2023-02-11T03:07:14;101542.64;;;26.03;35.96
73245;BME280;61460;41.158;-73.238;2023-02-11T03:09:44;101539.11;;;26.06;35.97
73245;BME280;61460;41.158;-73.238;2023-02-11T03:12:12;101533.15;;;25.96;36.26
73245;BME280;61460;41.158;-73.238;2023-02-11T03:14:44;101531.45;;;25.96;36.31
73245;BME280;61460;41.158;-73.238;2023-02-11T03:17:13;101543.00;;;26.06;36.16
73245;BME280;61460;41.158;-73.238;2023-02-11T03:19:45;101538.09;;;26.02;36.32
73245;BME280;61460;41.158;-73.238;2023-02-11T03:22:18;101538.76;;;25.83;36.59
73245;BME280;61460;41.158;-73.238;2023-02-11T03:24:45;101537.89;;;26.00;36.34
73245;BME280;61460;41.158;-73.238;2023-02-11T03:27:20;101536.87;;;26.04;36.31
73245;BME280;61460;41.158;-73.238;2023-02-11T03:29:50;101537.02;;;25.94;36.77
73245;BME280;61460;41.158;-73.238;2023-02-11T03:32:19;101531.40;;;26.03;36.36
73245;BME280;61460;41.158;-73.238;2023-02-11T03:34:51;101544.97;;;26.03;36.41
73245;BME280;61460;41.158;-73.238;2023-02-11T03:37:21;101540.39;;;26.00;36.56
73245;BME280;61460;41.158;-73.238;2023-02-11T03:39:53;101543.34;;;25.99;36.55
73245;BME280;61460;41.158;-73.238;2023-02-11T03:42:19;101542.54;;;26.11;36.35
73245;BME280;61460;41.158;-73.238;2023-02-11T03:44:54;101549.21;;;26.15;36.32
73245;BME280;61460;41.158;-73.238;2023-02-11T03:47:22;101551.94;;;25.24;37.51
73245;BME280;61460;41.158;-73.238;2023-02-11T03:49:51;101550.19;;;25.45;36.70
73245;BME280;61460;41.158;-73.238;2023-02-11T03:52:23;101551.70;;;25.55;37.16
73245;BME280;61460;41.158;-73.238;2023-02-11T03:54:55;101545.46;;;25.61;37.10
73245;BME280;61460;41.158;-73.238;2023-02-11T03:57:22;101541.66;;;25.54;37.29
73245;BME280;61460;41.158;-73.238;2023-02-11T03:59:54;101542.12;;;25.62;37.23
73245;BME280;61460;41.158;-73.238;2023-02-11T04:02:26;101552.07;;;25.75;37.11
73245;BME280;61460;41.158;-73.238;2023-02-11T04:04:53;101547.11;;;25.64;37.36
73245;BME280;61460;41.158;-73.238;2023-02-11T04:07:24;101541.22;;;25.72;37.09
73245;BME280;61460;41.158;-73.238;2023-02-11T04:09:54;101540.19;;;25.67;37.09
73245;BME280;61460;41.158;-73.238;2023-02-11T04:12:25;101542.28;;;25.56;37.11
73245;BME280;61460;41.158;-73.238;2023-02-11T04:14:55;101529.50;;;25.52;36.85
73245;BME280;61460;41.158;-73.238;2023-02-11T04:17:26;101526.94;;;25.52;37.07
73245;BME280;61460;41.158;-73.238;2023-02-11T04:19:56;101530.59;;;25.49;36.98
73245;BME280;61460;41.158;-73.238;2023-02-11T04:22:26;101536.18;;;25.48;37.01
73245;BME280;61460;41.158;-73.238;2023-02-11T04:24:57;101536.25;;;25.44;37.16
73245;BME280;61460;41.158;-73.238;2023-02-11T04:27:27;101517.85;;;25.29;37.39
73245;BME280;61460;41.158;-73.238;2023-02-11T04:29:58;101505.41;;;25.15;37.21
73245;BME280;61460;41.158;-73.238;2023-02-11T04:32:28;101496.51;;;24.36;38.97
73245;BME280;61460;41.158;-73.238;2023-02-11T04:34:59;101503.56;;;24.82;37.97
73245;BME280;61460;41.158;-73.238;2023-02-11T04:37:29;101498.62;;;25.08;38.17
73245;BME280;61460;41.158;-73.238;2023-02-11T04:40:00;101492.69;;;25.18;37.82
73245;BME280;61460;41.158;-73.238;2023-02-11T04:42:31;101491.97;;;25.29;37.60
73245;BME280;61460;41.158;-73.238;2023-02-11T04:45:01;101489.93;;;25.30;37.45
73245;BME280;61460;41.158;-73.238;2023-02-11T04:47:31;101493.91;;;25.28;37.52
73245;BME280;61460;41.158;-73.238;2023-02-11T04:50:02;101480.90;;;25.36;37.28
73245;BME280;61460;41.158;-73.238;2023-02-11T04:52:32;101473.09;;;25.22;37.25
73245;BME280;61460;41.158;-73.238;2023-02-11T04:55:03;101473.46;;;25.30;37.12
73245;BME280;61460;41.158;-73.238;2023-02-11T04:57:32;101473.72;;;25.28;37.17
73245;BME280;61460;41.158;-73.238;2023-02-11T05:00:05;101472.94;;;25.35;37.13
73245;BME280;61460;41.158;-73.238;2023-02-11T05:02:33;101481.77;;;25.40;37.00
73245;BME280;61460;41.158;-73.238;2023-02-11T05:05:04;101471.10;;;25.07;37.68
73245;BME280;61460;41.158;-73.238;2023-02-11T05:07:34;101475.37;;;25.09;37.83
73245;BME280;61460;41.158;-73.238;2023-02-11T05:10:05;101473.17;;;24.40;38.80
73245;BME280;61460;41.158;-73.238;2023-02-11T05:12:35;101469.15;;;24.49;38.73
73245;BME280;61460;41.158;-73.238;2023-02-11T05:15:06;101479.93;;;24.73;38.47
73245;BME280;61460;41.158;-73.238;2023-02-11T05:17:36;101486.31;;;24.97;38.18
73245;BME280;61460;41.158;-73.238;2023-02-11T05:20:08;101481.95;;;25.15;37.72
73245;BME280;61460;41.158;-73.238;2023-02-11T05:22:36;101489.90;;;25.09;37.72
73245;BME280;61460;41.158;-73.238;2023-02-11T05:25:07;101487.34;;;25.09;37.84
73245;BME280;61460;41.158;-73.238;2023-02-11T05:27:37;101489.56;;;25.00;37.63
73245;BME280;61460;41.158;-73.238;2023-02-11T05:30:10;101492.31;;;25.00;37.54
73245;BME280;61460;41.158;-73.238;2023-02-11T05:32:38;101500.87;;;25.09;37.19
73245;BME280;61460;41.158;-73.238;2023-02-11T05:35:08;101498.58;;;25.10;37.11
73245;BME280;61460;41.158;-73.238;2023-02-11T05:37:39;101498.35;;;25.13;37.14
73245;BME280;61460;41.158;-73.238;2023-02-11T05:40:10;101498.68;;;25.08;37.21
73245;BME280;61460;41.158;-73.238;2023-02-11T05:42:41;101507.76;;;25.01;37.34
73245;BME280;61460;41.158;-73.238;2023-02-11T05:45:15;101514.41;;;24.99;37.37
73245;BME280;61460;41.158;-73.238;2023-02-11T05:47:42;101524.67;;;25.02;37.33
73245;BME280;61460;41.158;-73.238;2023-02-11T05:50:11;101526.94;;;24.96;37.55
73245;BME280;61460;41.158;-73.238;2023-02-11T05:52:41;101515.10;;;24.43;38.86
73245;BME280;61460;41.158;-73.238;2023-02-11T05:55:11;101523.21;;;23.99;39.90
73245;BME280;61460;41.158;-73.238;2023-02-11T05:57:42;101534.40;;;24.45;39.13
73245;BME280;61460;41.158;-73.238;2023-02-11T06:00:14;101534.49;;;24.67;38.78
73245;BME280;61460;41.158;-73.238;2023-02-11T06:02:44;101543.66;;;24.72;38.56
73245;BME280;61460;41.158;-73.238;2023-02-11T06:05:13;101551.67;;;24.82;38.28
73245;BME280;61460;41.158;-73.238;2023-02-11T06:07:44;101549.20;;;24.82;38.28
73245;BME280;61460;41.158;-73.238;2023-02-11T06:10:14;101560.00;;;24.86;38.20
73245;BME280;61460;41.158;-73.238;2023-02-11T06:12:45;101563.78;;;24.90;38.10
73245;BME280;61460;41.158;-73.238;2023-02-11T06:15:15;101571.35;;;24.89;38.27
73245;BME280;61460;41.158;-73.238;2023-02-11T06:17:45;101572.53;;;24.91;38.00
73245;BME280;61460;41.158;-73.238;2023-02-11T06:20:16;101579.84;;;24.94;38.08
73245;BME280;61460;41.158;-73.238;2023-02-11T06:22:47;101581.17;;;24.86;38.66
73245;BME280;61460;41.158;-73.238;2023-02-11T06:25:17;101593.50;;;24.10;40.35
73245;BME280;61460;41.158;-73.238;2023-02-11T06:27:47;101595.53;;;24.19;40.25
73245;BME280;61460;41.158;-73.238;2023-02-11T06:30:18;101595.12;;;24.38;39.96
73245;BME280;61460;41.158;-73.238;2023-02-11T06:32:48;101587.09;;;24.58;39.90
73245;BME280;61460;41.158;-73.238;2023-02-11T06:35:19;101596.08;;;24.67;39.36
73245;BME280;61460;41.158;-73.238;2023-02-11T06:37:50;101600.48;;;24.81;39.23
73245;BME280;61460;41.158;-73.238;2023-02-11T06:40:20;101620.06;;;24.81;38.66
73245;BME280;61460;41.158;-73.238;2023-02-11T06:42:51;101626.34;;;24.90;38.55
73245;BME280;61460;41.158;-73.238;2023-02-11T06:45:21;101636.76;;;24.90;38.71
73245;BME280;61460;41.158;-73.238;2023-02-11T06:47:52;101648.77;;;24.93;38.75
73245;BME280;61460;41.158;-73.238;2023-02-11T06:50:22;101652.83;;;24.92;38.77
73245;BME280;61460;41.158;-73.238;2023-02-11T06:52:52;101651.55;;;24.59;38.84
73245;BME280;61460;41.158;-73.238;2023-02-11T06:55:23;101653.09;;;24.38;38.56
73245;BME280;61460;41.158;-73.238;2023-02-11T06:57:54;101666.10;;;24.56;39.07
73245;BME280;61460;41.158;-73.238;2023-02-11T07:00:23;101676.95;;;24.72;38.71
73245;BME280;61460;41.158;-73.238;2023-02-11T07:02:55;101662.86;;;24.70;38.51
73245;BME280;61460;41.158;-73.238;2023-02-11T07:05:24;101669.78;;;24.77;38.49
73245;BME280;61460;41.158;-73.238;2023-02-11T07:07:54;101660.82;;;23.95;40.18
73245;BME280;61460;41.158;-73.238;2023-02-11T07:10:24;101679.20;;;24.26;39.79
73245;BME280;61460;41.158;-73.238;2023-02-11T07:12:55;101678.53;;;24.51;39.58
73245;BME280;61460;41.158;-73.238;2023-02-11T07:15:25;101686.58;;;24.61;39.41
73245;BME280;61460;41.158;-73.238;2023-02-11T07:17:55;101710.02;;;24.70;39.16
73245;BME280;61460;41.158;-73.238;2023-02-11T07:20:26;101699.42;;;24.77;39.12
73245;BME280;61460;41.158;-73.238;2023-02-11T07:22:56;101702.97;;;24.81;39.07
73245;BME280;61460;41.158;-73.238;2023-02-11T07:25:26;101701.77;;;24.76;39.07
73245;BME280;61460;41.158;-73.238;2023-02-11T07:27:56;101699.39;;;24.77;39.02
73245;BME280;61460;41.158;-73.238;2023-02-11T07:30:27;101702.68;;;24.77;38.93
73245;BME280;61460;41.158;-73.238;2023-02-11T07:32:57;101693.37;;;24.85;39.00
73245;BME280;61460;41.158;-73.238;2023-02-11T07:35:27;101691.34;;;24.81;39.26
73245;BME280;61460;41.158;-73.238;2023-02-11T07:37:58;101695.70;;;24.52;39.34
73245;BME280;61460;41.158;-73.238;2023-02-11T07:40:28;101699.76;;;24.28;39.38
73245;BME280;61460;41.158;-73.238;2023-02-11T07:42:59;101696.75;;;24.41;39.04
73245;BME280;61460;41.158;-73.238;2023-02-11T07:45:30;101697.38;;;24.58;39.33
73245;BME280;61460;41.158;-73.238;2023-02-11T07:48:00;101687.67;;;23.98;40.46
73245;BME280;61460;41.158;-73.238;2023-02-11T07:50:30;101694.31;;;24.25;39.39
73245;BME280;61460;41.158;-73.238;2023-02-11T07:53:01;101695.28;;;24.48;39.82
73245;BME280;61460;41.158;-73.238;2023-02-11T07:55:32;101699.89;;;24.57;39.60
73245;BME280;61460;41.158;-73.238;2023-02-11T07:58:02;101699.27;;;24.68;39.38
73245;BME280;61460;41.158;-73.238;2023-02-11T08:00:32;101703.28;;;24.69;39.31
73245;BME280;61460;41.158;-73.238;2023-02-11T08:03:03;101705.75;;;24.79;39.38
73245;BME280;61460;41.158;-73.238;2023-02-11T08:05:32;101697.31;;;24.80;39.09
73245;BME280;61460;41.158;-73.238;2023-02-11T08:08:02;101703.77;;;24.78;38.99
73245;BME280;61460;41.158;-73.238;2023-02-11T08:10:33;101694.78;;;24.77;39.14
73245;BME280;61460;41.158;-73.238;2023-02-11T08:13:03;101699.19;;;24.57;38.84
73245;BME280;61460;41.158;-73.238;2023-02-11T08:15:34;101696.87;;;24.28;39.13
73245;BME280;61460;41.158;-73.238;2023-02-11T08:18:04;101698.50;;;23.93;39.65
73245;BME280;61460;41.158;-73.238;2023-02-11T08:20:35;101689.71;;;24.03;39.40
73245;BME280;61460;41.158;-73.238;2023-02-11T08:23:06;101700.83;;;24.29;39.91
73245;BME280;61460;41.158;-73.238;2023-02-11T08:25:36;101710.71;;;24.48;38.96
73245;BME280;61460;41.158;-73.238;2023-02-11T08:28:07;101719.59;;;24.62;38.72
73245;BME280;61460;41.158;-73.238;2023-02-11T08:30:38;101708.74;;;24.59;38.57
73245;BME280;61460;41.158;-73.238;2023-02-11T08:33:08;101716.01;;;24.62;38.63
73245;BME280;61460;41.158;-73.238;2023-02-11T08:35:39;101712.23;;;24.60;38.25
73245;BME280;61460;41.158;-73.238;2023-02-11T08:38:10;101721.50;;;24.56;38.13
73245;BME280;61460;41.158;-73.238;2023-02-11T08:40:40;101729.19;;;24.60;38.14
73245;BME280;61460;41.158;-73.238;2023-02-11T08:43:10;101735.02;;;24.53;38.26
73245;BME280;61460;41.158;-73.238;2023-02-11T08:45:42;101721.86;;;24.32;38.17
73245;BME280;61460;41.158;-73.238;2023-02-11T08:48:11;101735.14;;;24.03;38.53
73245;BME280;61460;41.158;-73.238;2023-02-11T08:50:41;101743.46;;;24.40;38.20
73245;BME280;61460;41.158;-73.238;2023-02-11T08:53:12;101751.36;;;24.57;38.11
73245;BME280;61460;41.158;-73.238;2023-02-11T08:55:47;101751.91;;;24.54;37.94
73245;BME280;61460;41.158;-73.238;2023-02-11T08:58:13;101748.31;;;24.17;38.78
73245;BME280;61460;41.158;-73.238;2023-02-11T09:00:44;101758.40;;;23.78;39.62
73245;BME280;61460;41.158;-73.238;2023-02-11T09:03:15;101757.90;;;24.10;38.95
73245;BME280;61460;41.158;-73.238;2023-02-11T09:05:46;101768.18;;;24.31;39.06
73245;BME280;61460;41.158;-73.238;2023-02-11T09:08:16;101765.42;;;24.44;38.90
73245;BME280;61460;41.158;-73.238;2023-02-11T09:10:46;101770.45;;;24.41;38.74
73245;BME280;61460;41.158;-73.238;2023-02-11T09:13:16;101770.95;;;24.45;38.59
73245;BME280;61460;41.158;-73.238;2023-02-11T09:15:47;101766.64;;;24.14;38.08
73245;BME280;61460;41.158;-73.238;2023-02-11T09:18:17;101765.71;;;24.25;38.14
73245;BME280;61460;41.158;-73.238;2023-02-11T09:20:48;101767.23;;;24.38;38.26
73245;BME280;61460;41.158;-73.238;2023-02-11T09:23:18;101775.73;;;24.47;38.36
73245;BME280;61460;41.158;-73.238;2023-02-11T09:25:48;101776.00;;;24.44;38.34
73245;BME280;61460;41.158;-73.238;2023-02-11T09:28:18;101787.53;;;24.43;38.11
73245;BME280;61460;41.158;-73.238;2023-02-11T09:30:49;101787.27;;;24.40;38.16
73245;BME280;61460;41.158;-73.238;2023-02-11T09:33:19;101791.99;;;24.40;38.20
73245;BME280;61460;41.158;-73.238;2023-02-11T09:35:49;101800.73;;;24.38;38.32
73245;BME280;61460;41.158;-73.238;2023-02-11T09:38:20;101791.08;;;24.38;38.47
73245;BME280;61460;41.158;-73.238;2023-02-11T09:40:51;101787.87;;;24.37;38.52
73245;BME280;61460;41.158;-73.238;2023-02-11T09:43:23;101791.28;;;24.09;38.94
73245;BME280;61460;41.158;-73.238;2023-02-11T09:45:54;101798.95;;;24.09;38.18
73245;BME280;61460;41.158;-73.238;2023-02-11T09:48:22;101816.77;;;24.32;38.80
73245;BME280;61460;41.158;-73.238;2023-02-11T09:50:56;101813.99;;;24.41;38.41
73245;BME280;61460;41.158;-73.238;2023-02-11T09:53:24;101797.95;;;24.35;38.05
73245;BME280;61460;41.158;-73.238;2023-02-11T09:55:56;101797.10;;;24.34;38.28
73245;BME280;61460;41.158;-73.238;2023-02-11T09:58:26;101799.54;;;24.35;38.20
73245;BME280;61460;41.158;-73.238;2023-02-11T10:01:02;101827.19;;;24.27;38.35
73245;BME280;61460;41.158;-73.238;2023-02-11T10:03:36;101830.61;;;24.15;38.51
73245;BME280;61460;41.158;-73.238;2023-02-11T10:06:07;101834.57;;;24.22;37.66
73245;BME280;61460;41.158;-73.238;2023-02-11T10:08:32;101836.42;;;24.32;38.66
73245;BME280;61460;41.158;-73.238;2023-02-11T10:11:00;101843.64;;;24.45;38.10
73245;BME280;61460;41.158;-73.238;2023-02-11T10:13:35;101847.56;;;24.36;38.00
73245;BME280;61460;41.158;-73.238;2023-02-11T10:16:04;101865.51;;;24.30;37.97
73245;BME280;61460;41.158;-73.238;2023-02-11T10:18:43;101859.94;;;24.29;37.88
73245;BME280;61460;41.158;-73.238;2023-02-11T10:21:07;101851.53;;;24.39;37.71
73245;BME280;61460;41.158;-73.238;2023-02-11T10:23:32;101854.93;;;24.15;37.88
73245;BME280;61460;41.158;-73.238;2023-02-11T10:25:59;101854.18;;;24.26;37.16
73245;BME280;61460;41.158;-73.238;2023-02-11T10:28:33;101874.27;;;24.29;37.94
73245;BME280;61460;41.158;-73.238;2023-02-11T10:31:03;101878.91;;;24.38;37.58
73245;BME280;61460;41.158;-73.238;2023-02-11T10:33:36;101886.36;;;24.42;37.78
73245;BME280;61460;41.158;-73.238;2023-02-11T10:36:02;101898.37;;;24.33;37.81
73245;BME280;61460;41.158;-73.238;2023-02-11T10:38:32;101900.84;;;24.41;37.61
73245;BME280;61460;41.158;-73.238;2023-02-11T10:41:02;101907.34;;;24.30;37.66
73245;BME280;61460;41.158;-73.238;2023-02-11T10:43:32;101917.87;;;24.10;37.95
73245;BME280;61460;41.158;-73.238;2023-02-11T10:46:04;101918.09;;;24.08;37.42
73245;BME280;61460;41.158;-73.238;2023-02-11T10:48:39;101930.00;;;24.23;37.88
73245;BME280;61460;41.158;-73.238;2023-02-11T10:53:34;101949.17;;;24.28;37.84
73245;BME280;61460;41.158;-73.238;2023-02-11T10:56:07;101945.49;;;24.29;37.56
73245;BME280;61460;41.158;-73.238;2023-02-11T10:58:40;101943.82;;;24.21;38.11
73245;BME280;61460;41.158;-73.238;2023-02-11T11:01:06;101933.61;;;24.12;37.39
73245;BME280;61460;41.158;-73.238;2023-02-11T11:03:39;101943.62;;;24.08;37.84
73245;BME280;61460;41.158;-73.238;2023-02-11T11:06:08;101937.95;;;23.99;37.30
73245;BME280;61460;41.158;-73.238;2023-02-11T11:08:39;101959.74;;;24.06;37.61
73245;BME280;61460;41.158;-73.238;2023-02-11T11:11:08;101954.10;;;24.12;37.55
73245;BME280;61460;41.158;-73.238;2023-02-11T11:13:39;101957.97;;;24.14;37.81
73245;BME280;61460;41.158;-73.238;2023-02-11T11:16:15;101967.95;;;24.20;37.79
73245;BME280;61460;41.158;-73.238;2023-02-11T11:18:40;101973.92;;;24.07;37.92
73245;BME280;61460;41.158;-73.238;2023-02-11T11:21:13;101988.49;;;24.00;37.60
73245;BME280;61460;41.158;-73.238;2023-02-11T11:23:46;101995.28;;;23.95;37.39
73245;BME280;61460;41.158;-73.238;2023-02-11T11:26:12;102001.37;;;23.94;37.33
73245;BME280;61460;41.158;-73.238;2023-02-11T11:28:48;102001.13;;;24.08;38.03
73245;BME280;61460;41.158;-73.238;2023-02-11T11:31:13;102020.36;;;24.08;37.62
73245;BME280;61460;41.158;-73.238;2023-02-11T11:33:42;102032.23;;;24.06;37.59
73245;BME280;61460;41.158;-73.238;2023-02-11T11:36:14;102050.60;;;23.74;38.26
73245;BME280;61460;41.158;-73.238;2023-02-11T11:38:46;102062.63;;;23.63;38.29
73245;BME280;61460;41.158;-73.238;2023-02-11T11:41:14;102068.12;;;23.80;39.30
73245;BME280;61460;41.158;-73.238;2023-02-11T11:46:24;102083.27;;;23.78;37.40
73245;BME280;61460;41.158;-73.238;2023-02-11T11:48:46;102094.76;;;23.94;37.39
73245;BME280;61460;41.158;-73.238;2023-02-11T11:51:14;102112.34;;;23.93;37.49
73245;BME280;61460;41.158;-73.238;2023-02-11T11:53:51;102108.58;;;23.94;37.34
73245;BME280;61460;41.158;-73.238;2023-02-11T11:56:19;102105.86;;;24.02;37.35
73245;BME280;61460;41.158;-73.238;2023-02-11T11:58:46;102114.37;;;23.96;37.57
73245;BME280;61460;41.158;-73.238;2023-02-11T12:01:26;102134.96;;;23.99;37.50
73245;BME280;61460;41.158;-73.238;2023-02-11T12:06:27;102132.33;;;23.72;37.79
73245;BME280;61460;41.158;-73.238;2023-02-11T12:08:57;102139.33;;;23.58;37.04
73245;BME280;61460;41.158;-73.238;2023-02-11T12:11:24;102155.97;;;23.58;37.48
73245;BME280;61460;41.158;-73.238;2023-02-11T12:14:01;102167.19;;;23.75;37.31
73245;BME280;61460;41.158;-73.238;2023-02-11T12:16:32;102166.19;;;23.92;37.42
73245;BME280;61460;41.158;-73.238;2023-02-11T12:21:29;102172.18;;;23.92;37.34
73245;BME280;61460;41.158;-73.238;2023-02-11T12:24:05;102174.96;;;23.84;37.62
73245;BME280;61460;41.158;-73.238;2023-02-11T12:26:23;102178.72;;;23.84;37.55
73245;BME280;61460;41.158;-73.238;2023-02-11T12:29:02;102187.80;;;23.89;37.54
73245;BME280;61460;41.158;-73.238;2023-02-11T12:31:29;102198.94;;;23.85;36.99
73245;BME280;61460;41.158;-73.238;2023-02-11T12:34:06;102205.95;;;23.77;37.03
73245;BME280;61460;41.158;-73.238;2023-02-11T12:36:33;102233.55;;;23.80;37.37
73245;BME280;61460;41.158;-73.238;2023-02-11T12:39:04;102239.82;;;23.87;37.33
73245;BME280;61460;41.158;-73.238;2023-02-11T12:41:36;102237.31;;;23.92;37.07
73245;BME280;61460;41.158;-73.238;2023-02-11T12:43:55;102239.08;;;23.95;37.27
73245;BME280;61460;41.158;-73.238;2023-02-11T12:46:33;102259.65;;;23.87;37.51
73245;BME280;61460;41.158;-73.238;2023-02-11T12:49:06;102272.87;;;23.92;37.43
73245;BME280;61460;41.158;-73.238;2023-02-11T12:51:38;102267.80;;;23.94;37.39
73245;BME280;61460;41.158;-73.238;2023-02-11T12:54:11;102259.76;;;24.10;37.52
73245;BME280;61460;41.158;-73.238;2023-02-11T12:56:31;102249.25;;;23.89;37.14
73245;BME280;61460;41.158;-73.238;2023-02-11T12:59:00;102248.44;;;23.88;36.10
73245;BME280;61460;41.158;-73.238;2023-02-11T13:01:32;102258.64;;;23.90;37.01
73245;BME280;61460;41.158;-73.238;2023-02-11T13:04:04;102266.75;;;23.91;37.26
73245;BME280;61460;41.158;-73.238;2023-02-11T13:06:33;102270.10;;;23.98;37.10
73245;BME280;61460;41.158;-73.238;2023-02-11T13:09:00;102277.12;;;24.07;37.20
73245;BME280;61460;41.158;-73.238;2023-02-11T13:11:33;102279.99;;;24.05;37.74